Aeroporto :







RITROVATECI SU...

 
LOGIN :

Iscrizione | Disclaimer

   EN    FR    IT 

 









Sommario :    VFR   VFR Marginale   IFR   IFR Intensivo   IFR Molto Intensivo
Visibilità : 
Base nubi : 
>= 8 km
>= 3000ft
5 / 8 km
1000 / 3000 ft
1500m / 5 km
500 / 1000 ft
800 / 1500m
200 / 500 ft
< 800m
< 200 ft
Simboli :   Temporali  Nebbia  Neve Forte  Precipitazioni Forti  Vento > 20 kt






- Altitudine del aeroporto : 322 ft


KDAW - Skyhaven

ULTIMO METAR :
  • 111910Z AUTO 06005KT 10SM OVC014 04/01 A3012 RMK AO2 T00440006

METARs OBSOLETI :
  • 111851Z AUTO 06005KT 10SM BKN015 OVC042 04/01 A3013 RMK AO2 SLP202 T00440006
  • 111751Z AUTO 05005KT 10SM OVC060 05/01 A3013 RMK AO2 SLP202 60000 T00500006 10067 20050 58001
  • 111651Z AUTO 05006KT 10SM OVC055 06/00 A3014 RMK AO2 SLP206 T00560000

TAF N/A



MetMap, La meteo Aeronautica in un colpo d'occhio ! - Copyright ORBIFLY Dicembre 2007 - Disclaimer

ORBIFLY MET'MAP TEAM :

Programmazione e sviluppo : Alexandra Zaïnal
Concezione e sviluppo : Baudouin d'Aumeries
Co-Programmazione e sviluppo : Marc-Olivier Méhu
Supporto tecnico e logistico : Manuel Goepfert
Aiuto per la traduzione : Arnaldo La Scala

Contatto : metmap@orbifly.com




FONTI E CREDITI :

   NOAA